sensor_id;sensor_type;location;lat;lon;timestamp;temperature;humidity
54168;DHT22;68429;50.958;3.592;2024-02-23T00:00:12;5.60;99.90
54168;DHT22;68429;50.958;3.592;2024-02-23T00:02:38;5.60;99.90
54168;DHT22;68429;50.958;3.592;2024-02-23T00:05:04;5.60;99.90
54168;DHT22;68429;50.958;3.592;2024-02-23T00:07:30;5.60;99.90
54168;DHT22;68429;50.958;3.592;2024-02-23T00:09:55;5.60;99.90
54168;DHT22;68429;50.958;3.592;2024-02-23T00:12:21;5.70;99.90
54168;DHT22;68429;50.958;3.592;2024-02-23T00:14:47;5.60;99.90
54168;DHT22;68429;50.958;3.592;2024-02-23T00:17:12;5.60;99.90
54168;DHT22;68429;50.958;3.592;2024-02-23T00:19:38;5.60;99.90
54168;DHT22;68429;50.958;3.592;2024-02-23T00:22:04;5.50;99.90
54168;DHT22;68429;50.958;3.592;2024-02-23T00:24:29;5.40;99.90
54168;DHT22;68429;50.958;3.592;2024-02-23T00:26:55;5.40;99.90
54168;DHT22;68429;50.958;3.592;2024-02-23T00:29:21;5.40;99.90
54168;DHT22;68429;50.958;3.592;2024-02-23T00:31:47;5.30;99.90
54168;DHT22;68429;50.958;3.592;2024-02-23T00:34:13;5.20;99.90
54168;DHT22;68429;50.958;3.592;2024-02-23T00:36:40;5.20;99.90
54168;DHT22;68429;50.958;3.592;2024-02-23T00:39:06;5.20;99.90
54168;DHT22;68429;50.958;3.592;2024-02-23T00:41:33;5.10;99.90
54168;DHT22;68429;50.958;3.592;2024-02-23T00:43:58;5.20;99.90
54168;DHT22;68429;50.958;3.592;2024-02-23T00:46:24;5.10;99.90
54168;DHT22;68429;50.958;3.592;2024-02-23T00:48:50;5.10;99.90
54168;DHT22;68429;50.958;3.592;2024-02-23T00:51:15;5.00;99.90
54168;DHT22;68429;50.958;3.592;2024-02-23T00:53:41;5.00;99.90
54168;DHT22;68429;50.958;3.592;2024-02-23T00:56:07;5.00;99.90
54168;DHT22;68429;50.958;3.592;2024-02-23T00:58:32;5.00;99.90
54168;DHT22;68429;50.958;3.592;2024-02-23T01:00:59;5.10;99.90
54168;DHT22;68429;50.958;3.592;2024-02-23T01:03:25;5.10;99.90
54168;DHT22;68429;50.958;3.592;2024-02-23T01:05:50;5.00;99.90
54168;DHT22;68429;50.958;3.592;2024-02-23T01:08:16;4.90;99.90
54168;DHT22;68429;50.958;3.592;2024-02-23T01:10:41;5.00;99.90
54168;DHT22;68429;50.958;3.592;2024-02-23T01:13:07;5.00;99.90
54168;DHT22;68429;50.958;3.592;2024-02-23T01:15:33;5.20;99.90
54168;DHT22;68429;50.958;3.592;2024-02-23T01:17:59;5.00;99.90
54168;DHT22;68429;50.958;3.592;2024-02-23T01:20:25;5.10;99.90
54168;DHT22;68429;50.958;3.592;2024-02-23T01:22:51;5.00;99.90
54168;DHT22;68429;50.958;3.592;2024-02-23T01:25:16;5.00;99.90
54168;DHT22;68429;50.958;3.592;2024-02-23T01:27:44;5.00;99.90
54168;DHT22;68429;50.958;3.592;2024-02-23T01:30:10;5.00;99.90
54168;DHT22;68429;50.958;3.592;2024-02-23T01:32:37;5.00;99.90
54168;DHT22;68429;50.958;3.592;2024-02-23T01:35:05;5.10;99.90
54168;DHT22;68429;50.958;3.592;2024-02-23T01:37:31;5.10;99.90
54168;DHT22;68429;50.958;3.592;2024-02-23T01:39:58;5.10;99.90
54168;DHT22;68429;50.958;3.592;2024-02-23T01:42:26;5.10;99.90
54168;DHT22;68429;50.958;3.592;2024-02-23T01:45:15;5.00;99.90
54168;DHT22;68429;50.958;3.592;2024-02-23T01:47:41;5.10;99.90
54168;DHT22;68429;50.958;3.592;2024-02-23T01:50:07;5.10;99.90
54168;DHT22;68429;50.958;3.592;2024-02-23T01:52:34;5.10;99.90
54168;DHT22;68429;50.958;3.592;2024-02-23T01:55:00;5.10;99.90
54168;DHT22;68429;50.958;3.592;2024-02-23T01:57:26;5.10;99.90
54168;DHT22;68429;50.958;3.592;2024-02-23T01:59:53;5.10;99.90
54168;DHT22;68429;50.958;3.592;2024-02-23T02:02:19;5.00;99.90
54168;DHT22;68429;50.958;3.592;2024-02-23T02:04:44;5.10;99.90
54168;DHT22;68429;50.958;3.592;2024-02-23T02:07:10;5.10;99.90
54168;DHT22;68429;50.958;3.592;2024-02-23T02:09:36;5.10;99.90
54168;DHT22;68429;50.958;3.592;2024-02-23T02:12:04;5.00;99.90
54168;DHT22;68429;50.958;3.592;2024-02-23T02:14:30;5.00;99.90
54168;DHT22;68429;50.958;3.592;2024-02-23T02:16:57;5.10;99.90
54168;DHT22;68429;50.958;3.592;2024-02-23T02:19:22;5.00;99.90
54168;DHT22;68429;50.958;3.592;2024-02-23T02:21:48;5.10;99.90
54168;DHT22;68429;50.958;3.592;2024-02-23T02:24:15;5.10;99.90
54168;DHT22;68429;50.958;3.592;2024-02-23T02:26:41;5.10;99.90
54168;DHT22;68429;50.958;3.592;2024-02-23T02:29:08;5.20;99.90
54168;DHT22;68429;50.958;3.592;2024-02-23T02:31:34;5.10;99.90
54168;DHT22;68429;50.958;3.592;2024-02-23T02:34:03;5.20;99.90
54168;DHT22;68429;50.958;3.592;2024-02-23T02:36:29;5.20;99.90
54168;DHT22;68429;50.958;3.592;2024-02-23T02:38:54;5.00;99.90
54168;DHT22;68429;50.958;3.592;2024-02-23T02:41:23;5.00;99.90
54168;DHT22;68429;50.958;3.592;2024-02-23T02:43:49;5.00;99.90
54168;DHT22;68429;50.958;3.592;2024-02-23T02:46:15;5.00;99.90
54168;DHT22;68429;50.958;3.592;2024-02-23T02:48:41;5.10;99.90
54168;DHT22;68429;50.958;3.592;2024-02-23T02:51:06;5.20;99.90
54168;DHT22;68429;50.958;3.592;2024-02-23T02:53:32;5.10;99.90
54168;DHT22;68429;50.958;3.592;2024-02-23T02:55:58;5.10;99.90
54168;DHT22;68429;50.958;3.592;2024-02-23T02:58:23;5.20;99.90
54168;DHT22;68429;50.958;3.592;2024-02-23T03:00:49;5.20;99.90
54168;DHT22;68429;50.958;3.592;2024-02-23T03:03:15;5.20;99.90
54168;DHT22;68429;50.958;3.592;2024-02-23T03:05:40;5.20;99.90
54168;DHT22;68429;50.958;3.592;2024-02-23T03:08:06;5.30;99.90
54168;DHT22;68429;50.958;3.592;2024-02-23T03:10:32;5.30;99.90
54168;DHT22;68429;50.958;3.592;2024-02-23T03:12:58;5.20;99.90
54168;DHT22;68429;50.958;3.592;2024-02-23T03:15:23;5.20;99.90
54168;DHT22;68429;50.958;3.592;2024-02-23T03:17:49;5.30;99.90
54168;DHT22;68429;50.958;3.592;2024-02-23T03:20:15;5.20;99.90
54168;DHT22;68429;50.958;3.592;2024-02-23T03:22:41;5.30;99.90
54168;DHT22;68429;50.958;3.592;2024-02-23T03:25:07;5.20;99.90
54168;DHT22;68429;50.958;3.592;2024-02-23T03:27:34;5.30;99.90
54168;DHT22;68429;50.958;3.592;2024-02-23T03:30:04;5.30;99.90
54168;DHT22;68429;50.958;3.592;2024-02-23T03:32:31;5.20;99.90
54168;DHT22;68429;50.958;3.592;2024-02-23T03:35:10;5.30;99.90
54168;DHT22;68429;50.958;3.592;2024-02-23T03:37:36;5.20;99.90
54168;DHT22;68429;50.958;3.592;2024-02-23T03:40:02;5.30;99.90
54168;DHT22;68429;50.958;3.592;2024-02-23T03:42:28;5.30;99.90
54168;DHT22;68429;50.958;3.592;2024-02-23T03:44:54;5.30;99.90
54168;DHT22;68429;50.958;3.592;2024-02-23T03:47:20;5.20;99.90
54168;DHT22;68429;50.958;3.592;2024-02-23T03:49:46;5.20;99.90
54168;DHT22;68429;50.958;3.592;2024-02-23T03:52:12;5.20;99.90
54168;DHT22;68429;50.958;3.592;2024-02-23T03:54:37;5.20;99.90
54168;DHT22;68429;50.958;3.592;2024-02-23T03:57:03;5.20;99.90
54168;DHT22;68429;50.958;3.592;2024-02-23T03:59:29;5.20;99.90
54168;DHT22;68429;50.958;3.592;2024-02-23T04:01:56;5.20;99.90
54168;DHT22;68429;50.958;3.592;2024-02-23T04:04:24;5.20;99.90
54168;DHT22;68429;50.958;3.592;2024-02-23T04:06:50;5.20;99.90
54168;DHT22;68429;50.958;3.592;2024-02-23T04:09:16;5.30;99.90
54168;DHT22;68429;50.958;3.592;2024-02-23T04:11:41;5.30;99.90
54168;DHT22;68429;50.958;3.592;2024-02-23T04:14:07;5.40;99.90
54168;DHT22;68429;50.958;3.592;2024-02-23T04:16:32;5.40;99.90
54168;DHT22;68429;50.958;3.592;2024-02-23T04:18:58;5.30;99.90
54168;DHT22;68429;50.958;3.592;2024-02-23T04:21:25;5.30;99.90
54168;DHT22;68429;50.958;3.592;2024-02-23T04:23:51;5.30;99.90
54168;DHT22;68429;50.958;3.592;2024-02-23T04:26:17;5.20;99.90
54168;DHT22;68429;50.958;3.592;2024-02-23T04:28:42;5.20;99.90
54168;DHT22;68429;50.958;3.592;2024-02-23T04:31:08;5.20;99.90
54168;DHT22;68429;50.958;3.592;2024-02-23T04:33:35;5.10;99.90
54168;DHT22;68429;50.958;3.592;2024-02-23T04:36:02;5.20;99.90
54168;DHT22;68429;50.958;3.592;2024-02-23T04:38:29;5.10;99.90
54168;DHT22;68429;50.958;3.592;2024-02-23T04:40:54;5.10;99.90
54168;DHT22;68429;50.958;3.592;2024-02-23T04:43:20;5.20;99.90
54168;DHT22;68429;50.958;3.592;2024-02-23T04:45:46;5.10;99.90
54168;DHT22;68429;50.958;3.592;2024-02-23T04:48:12;5.10;99.90
54168;DHT22;68429;50.958;3.592;2024-02-23T04:50:37;5.10;99.90
54168;DHT22;68429;50.958;3.592;2024-02-23T04:53:03;5.10;99.90
54168;DHT22;68429;50.958;3.592;2024-02-23T04:55:29;5.10;99.90
54168;DHT22;68429;50.958;3.592;2024-02-23T04:57:54;5.00;99.90
54168;DHT22;68429;50.958;3.592;2024-02-23T05:00:21;5.20;99.90
54168;DHT22;68429;50.958;3.592;2024-02-23T05:02:47;5.10;99.90
54168;DHT22;68429;50.958;3.592;2024-02-23T05:05:12;5.00;99.90
54168;DHT22;68429;50.958;3.592;2024-02-23T05:07:38;5.00;99.90
54168;DHT22;68429;50.958;3.592;2024-02-23T05:10:04;5.00;99.90
54168;DHT22;68429;50.958;3.592;2024-02-23T05:12:30;4.90;99.90
54168;DHT22;68429;50.958;3.592;2024-02-23T05:14:55;4.90;99.90
54168;DHT22;68429;50.958;3.592;2024-02-23T05:17:21;5.00;99.90
54168;DHT22;68429;50.958;3.592;2024-02-23T05:19:47;5.00;99.90
54168;DHT22;68429;50.958;3.592;2024-02-23T05:22:12;5.00;99.90
54168;DHT22;68429;50.958;3.592;2024-02-23T05:24:38;5.00;99.90
54168;DHT22;68429;50.958;3.592;2024-02-23T05:27:04;5.10;99.90
54168;DHT22;68429;50.958;3.592;2024-02-23T05:29:31;5.10;99.90
54168;DHT22;68429;50.958;3.592;2024-02-23T05:32:00;4.90;99.90
54168;DHT22;68429;50.958;3.592;2024-02-23T05:34:26;5.10;99.90
54168;DHT22;68429;50.958;3.592;2024-02-23T05:36:51;5.20;99.90
54168;DHT22;68429;50.958;3.592;2024-02-23T05:39:17;5.20;99.90
54168;DHT22;68429;50.958;3.592;2024-02-23T05:41:43;5.20;99.90
54168;DHT22;68429;50.958;3.592;2024-02-23T05:44:09;5.30;99.90
54168;DHT22;68429;50.958;3.592;2024-02-23T05:46:36;5.20;99.90
54168;DHT22;68429;50.958;3.592;2024-02-23T05:49:02;5.30;99.90
54168;DHT22;68429;50.958;3.592;2024-02-23T05:51:30;5.20;99.90
54168;DHT22;68429;50.958;3.592;2024-02-23T05:53:56;5.40;99.90
54168;DHT22;68429;50.958;3.592;2024-02-23T05:56:22;5.20;99.90
54168;DHT22;68429;50.958;3.592;2024-02-23T05:58:50;5.30;99.90
54168;DHT22;68429;50.958;3.592;2024-02-23T06:01:16;5.30;99.90
54168;DHT22;68429;50.958;3.592;2024-02-23T06:03:42;5.30;99.90
54168;DHT22;68429;50.958;3.592;2024-02-23T06:06:08;5.30;99.90
54168;DHT22;68429;50.958;3.592;2024-02-23T06:08:34;5.40;99.90
54168;DHT22;68429;50.958;3.592;2024-02-23T06:11:00;5.30;99.90
54168;DHT22;68429;50.958;3.592;2024-02-23T06:13:25;5.50;99.90
54168;DHT22;68429;50.958;3.592;2024-02-23T06:15:52;5.40;99.90
54168;DHT22;68429;50.958;3.592;2024-02-23T06:18:17;5.50;99.90
54168;DHT22;68429;50.958;3.592;2024-02-23T06:20:43;5.50;99.90
54168;DHT22;68429;50.958;3.592;2024-02-23T06:23:08;5.50;99.90
54168;DHT22;68429;50.958;3.592;2024-02-23T06:25:34;5.50;99.90
54168;DHT22;68429;50.958;3.592;2024-02-23T06:28:00;5.50;99.90
54168;DHT22;68429;50.958;3.592;2024-02-23T06:30:26;5.50;99.90
54168;DHT22;68429;50.958;3.592;2024-02-23T06:32:51;5.50;99.90
54168;DHT22;68429;50.958;3.592;2024-02-23T06:35:17;5.60;99.90
54168;DHT22;68429;50.958;3.592;2024-02-23T06:37:43;5.60;99.90
54168;DHT22;68429;50.958;3.592;2024-02-23T06:40:09;5.60;99.90
54168;DHT22;68429;50.958;3.592;2024-02-23T06:42:35;5.60;99.90
54168;DHT22;68429;50.958;3.592;2024-02-23T06:45:01;5.70;99.90
54168;DHT22;68429;50.958;3.592;2024-02-23T06:47:26;5.70;99.90
54168;DHT22;68429;50.958;3.592;2024-02-23T06:49:55;5.80;99.90
54168;DHT22;68429;50.958;3.592;2024-02-23T06:52:20;5.70;99.90
54168;DHT22;68429;50.958;3.592;2024-02-23T06:54:46;5.70;99.90
54168;DHT22;68429;50.958;3.592;2024-02-23T06:57:15;5.90;99.90
54168;DHT22;68429;50.958;3.592;2024-02-23T06:59:41;5.80;99.90
54168;DHT22;68429;50.958;3.592;2024-02-23T07:02:07;5.80;99.90
54168;DHT22;68429;50.958;3.592;2024-02-23T07:04:33;5.80;99.90
54168;DHT22;68429;50.958;3.592;2024-02-23T07:06:59;5.80;99.90
54168;DHT22;68429;50.958;3.592;2024-02-23T07:09:24;5.80;99.90
54168;DHT22;68429;50.958;3.592;2024-02-23T07:11:50;5.90;99.90
54168;DHT22;68429;50.958;3.592;2024-02-23T07:14:16;5.90;99.90
54168;DHT22;68429;50.958;3.592;2024-02-23T07:16:42;5.90;99.90
54168;DHT22;68429;50.958;3.592;2024-02-23T07:19:08;5.70;99.90
54168;DHT22;68429;50.958;3.592;2024-02-23T07:21:36;5.50;99.90
54168;DHT22;68429;50.958;3.592;2024-02-23T07:24:02;5.50;99.90
54168;DHT22;68429;50.958;3.592;2024-02-23T07:26:27;5.40;99.90
54168;DHT22;68429;50.958;3.592;2024-02-23T07:28:56;5.40;99.90
54168;DHT22;68429;50.958;3.592;2024-02-23T07:31:21;5.50;99.90
54168;DHT22;68429;50.958;3.592;2024-02-23T07:33:47;5.50;99.90
54168;DHT22;68429;50.958;3.592;2024-02-23T07:36:16;5.60;99.90
54168;DHT22;68429;50.958;3.592;2024-02-23T07:38:42;5.50;99.90
54168;DHT22;68429;50.958;3.592;2024-02-23T07:41:09;5.60;99.90
54168;DHT22;68429;50.958;3.592;2024-02-23T07:43:35;5.70;99.90
54168;DHT22;68429;50.958;3.592;2024-02-23T07:46:01;5.80;99.90
54168;DHT22;68429;50.958;3.592;2024-02-23T07:48:28;5.70;99.90
54168;DHT22;68429;50.958;3.592;2024-02-23T07:50:53;5.80;99.90
54168;DHT22;68429;50.958;3.592;2024-02-23T07:53:19;5.90;99.90
54168;DHT22;68429;50.958;3.592;2024-02-23T07:55:44;5.90;99.90
54168;DHT22;68429;50.958;3.592;2024-02-23T07:58:10;5.90;99.90
54168;DHT22;68429;50.958;3.592;2024-02-23T08:00:36;5.90;99.90
54168;DHT22;68429;50.958;3.592;2024-02-23T08:03:04;5.90;99.90
54168;DHT22;68429;50.958;3.592;2024-02-23T08:05:30;6.00;99.90
54168;DHT22;68429;50.958;3.592;2024-02-23T08:07:55;6.00;99.90
54168;DHT22;68429;50.958;3.592;2024-02-23T08:10:21;6.00;99.90
54168;DHT22;68429;50.958;3.592;2024-02-23T08:12:47;6.00;99.90
54168;DHT22;68429;50.958;3.592;2024-02-23T08:15:13;6.00;99.90
54168;DHT22;68429;50.958;3.592;2024-02-23T08:17:38;6.10;99.90
54168;DHT22;68429;50.958;3.592;2024-02-23T08:20:04;6.10;99.90
54168;DHT22;68429;50.958;3.592;2024-02-23T08:22:30;6.10;99.90
54168;DHT22;68429;50.958;3.592;2024-02-23T08:24:56;6.00;99.90
54168;DHT22;68429;50.958;3.592;2024-02-23T08:27:22;6.10;99.90
54168;DHT22;68429;50.958;3.592;2024-02-23T08:29:48;6.10;99.90
54168;DHT22;68429;50.958;3.592;2024-02-23T08:32:13;6.20;99.90
54168;DHT22;68429;50.958;3.592;2024-02-23T08:34:39;6.20;99.90
54168;DHT22;68429;50.958;3.592;2024-02-23T08:37:05;6.20;99.90
54168;DHT22;68429;50.958;3.592;2024-02-23T08:39:30;6.30;99.90
54168;DHT22;68429;50.958;3.592;2024-02-23T08:41:56;6.40;99.90
54168;DHT22;68429;50.958;3.592;2024-02-23T08:44:22;6.30;99.90
54168;DHT22;68429;50.958;3.592;2024-02-23T08:46:47;6.30;99.90
54168;DHT22;68429;50.958;3.592;2024-02-23T08:49:16;6.40;99.90
54168;DHT22;68429;50.958;3.592;2024-02-23T08:51:42;6.40;99.90
54168;DHT22;68429;50.958;3.592;2024-02-23T08:54:07;6.50;99.90
54168;DHT22;68429;50.958;3.592;2024-02-23T08:56:39;6.60;99.90
54168;DHT22;68429;50.958;3.592;2024-02-23T08:59:08;6.60;99.90
54168;DHT22;68429;50.958;3.592;2024-02-23T09:01:34;6.60;99.90
54168;DHT22;68429;50.958;3.592;2024-02-23T09:04:00;6.60;99.90
54168;DHT22;68429;50.958;3.592;2024-02-23T09:06:25;6.60;99.90
54168;DHT22;68429;50.958;3.592;2024-02-23T09:08:51;6.50;99.90
54168;DHT22;68429;50.958;3.592;2024-02-23T09:11:17;6.50;99.90
54168;DHT22;68429;50.958;3.592;2024-02-23T09:13:42;6.50;99.90
54168;DHT22;68429;50.958;3.592;2024-02-23T09:16:08;6.40;99.90
54168;DHT22;68429;50.958;3.592;2024-02-23T09:18:34;6.40;99.90
54168;DHT22;68429;50.958;3.592;2024-02-23T09:21:00;6.50;99.90
54168;DHT22;68429;50.958;3.592;2024-02-23T09:23:26;6.50;99.90
54168;DHT22;68429;50.958;3.592;2024-02-23T09:25:52;6.50;99.90
54168;DHT22;68429;50.958;3.592;2024-02-23T09:28:18;6.60;99.90
54168;DHT22;68429;50.958;3.592;2024-02-23T09:30:43;6.40;99.90
54168;DHT22;68429;50.958;3.592;2024-02-23T09:33:09;6.50;99.90
54168;DHT22;68429;50.958;3.592;2024-02-23T09:35:35;6.30;99.90
54168;DHT22;68429;50.958;3.592;2024-02-23T09:38:00;6.20;99.90
54168;DHT22;68429;50.958;3.592;2024-02-23T09:40:26;6.10;99.90
54168;DHT22;68429;50.958;3.592;2024-02-23T09:42:56;6.20;99.90
54168;DHT22;68429;50.958;3.592;2024-02-23T09:45:26;6.20;99.90
54168;DHT22;68429;50.958;3.592;2024-02-23T09:47:54;6.10;99.90
54168;DHT22;68429;50.958;3.592;2024-02-23T09:50:23;6.20;99.90
54168;DHT22;68429;50.958;3.592;2024-02-23T09:52:49;6.20;99.90
54168;DHT22;68429;50.958;3.592;2024-02-23T09:55:17;6.20;99.90
54168;DHT22;68429;50.958;3.592;2024-02-23T09:57:44;6.20;99.90
54168;DHT22;68429;50.958;3.592;2024-02-23T10:00:10;6.30;99.90
54168;DHT22;68429;50.958;3.592;2024-02-23T10:02:36;6.30;99.90
54168;DHT22;68429;50.958;3.592;2024-02-23T10:05:02;6.40;99.90
54168;DHT22;68429;50.958;3.592;2024-02-23T10:07:28;6.50;99.90
54168;DHT22;68429;50.958;3.592;2024-02-23T10:09:54;6.60;99.90
54168;DHT22;68429;50.958;3.592;2024-02-23T10:12:21;6.70;99.90
54168;DHT22;68429;50.958;3.592;2024-02-23T10:14:46;6.80;99.90
54168;DHT22;68429;50.958;3.592;2024-02-23T10:17:12;6.90;99.90
54168;DHT22;68429;50.958;3.592;2024-02-23T10:19:38;7.10;99.90
54168;DHT22;68429;50.958;3.592;2024-02-23T10:22:04;7.20;99.90
54168;DHT22;68429;50.958;3.592;2024-02-23T10:24:30;7.20;99.90
54168;DHT22;68429;50.958;3.592;2024-02-23T10:26:56;7.20;99.90
54168;DHT22;68429;50.958;3.592;2024-02-23T10:29:26;7.30;99.90
54168;DHT22;68429;50.958;3.592;2024-02-23T10:31:56;7.50;99.90
54168;DHT22;68429;50.958;3.592;2024-02-23T10:34:24;7.60;99.90
54168;DHT22;68429;50.958;3.592;2024-02-23T10:36:53;7.70;99.90
54168;DHT22;68429;50.958;3.592;2024-02-23T10:39:19;7.70;99.90
54168;DHT22;68429;50.958;3.592;2024-02-23T10:42:03;7.80;99.90
54168;DHT22;68429;50.958;3.592;2024-02-23T10:44:29;7.80;99.90
54168;DHT22;68429;50.958;3.592;2024-02-23T10:46:55;7.80;99.90
54168;DHT22;68429;50.958;3.592;2024-02-23T10:49:24;7.70;99.90
54168;DHT22;68429;50.958;3.592;2024-02-23T10:51:52;7.80;99.90
54168;DHT22;68429;50.958;3.592;2024-02-23T10:54:22;7.80;99.90
54168;DHT22;68429;50.958;3.592;2024-02-23T10:56:49;7.70;99.90
54168;DHT22;68429;50.958;3.592;2024-02-23T10:59:17;7.60;99.90
54168;DHT22;68429;50.958;3.592;2024-02-23T11:01:54;7.60;99.90
54168;DHT22;68429;50.958;3.592;2024-02-23T11:04:22;7.30;99.90
54168;DHT22;68429;50.958;3.592;2024-02-23T11:06:53;7.30;99.90
54168;DHT22;68429;50.958;3.592;2024-02-23T11:09:24;7.20;99.90
54168;DHT22;68429;50.958;3.592;2024-02-23T11:14:29;7.30;99.90
54168;DHT22;68429;50.958;3.592;2024-02-23T11:16:55;7.10;99.90
54168;DHT22;68429;50.958;3.592;2024-02-23T11:19:21;7.10;99.90
54168;DHT22;68429;50.958;3.592;2024-02-23T11:21:58;6.90;99.90
54168;DHT22;68429;50.958;3.592;2024-02-23T11:24:28;6.80;99.90
54168;DHT22;68429;50.958;3.592;2024-02-23T11:27:00;6.80;99.90
54168;DHT22;68429;50.958;3.592;2024-02-23T11:29:33;6.70;99.90
54168;DHT22;68429;50.958;3.592;2024-02-23T11:32:00;6.60;99.90
54168;DHT22;68429;50.958;3.592;2024-02-23T11:34:29;6.60;99.90
54168;DHT22;68429;50.958;3.592;2024-02-23T11:36:56;6.60;99.90
54168;DHT22;68429;50.958;3.592;2024-02-23T11:39:23;6.70;99.90
54168;DHT22;68429;50.958;3.592;2024-02-23T11:41:49;6.70;99.90
54168;DHT22;68429;50.958;3.592;2024-02-23T11:44:16;6.80;99.90
54168;DHT22;68429;50.958;3.592;2024-02-23T11:46:44;6.90;99.90
54168;DHT22;68429;50.958;3.592;2024-02-23T11:49:14;6.90;99.90
54168;DHT22;68429;50.958;3.592;2024-02-23T11:51:41;7.10;99.90
54168;DHT22;68429;50.958;3.592;2024-02-23T11:54:07;7.40;99.90
54168;DHT22;68429;50.958;3.592;2024-02-23T11:56:32;7.60;99.90
54168;DHT22;68429;50.958;3.592;2024-02-23T11:58:58;7.40;99.90
54168;DHT22;68429;50.958;3.592;2024-02-23T12:01:24;7.60;99.90
54168;DHT22;68429;50.958;3.592;2024-02-23T12:03:49;7.50;99.90
54168;DHT22;68429;50.958;3.592;2024-02-23T12:06:15;7.60;99.90
54168;DHT22;68429;50.958;3.592;2024-02-23T12:08:42;7.50;99.90
54168;DHT22;68429;50.958;3.592;2024-02-23T12:11:11;7.90;99.90
54168;DHT22;68429;50.958;3.592;2024-02-23T12:13:38;8.00;99.90
54168;DHT22;68429;50.958;3.592;2024-02-23T12:16:04;8.10;99.90
54168;DHT22;68429;50.958;3.592;2024-02-23T12:18:33;8.60;99.90
54168;DHT22;68429;50.958;3.592;2024-02-23T12:21:06;8.90;99.90
54168;DHT22;68429;50.958;3.592;2024-02-23T12:23:42;9.00;99.90
54168;DHT22;68429;50.958;3.592;2024-02-23T12:26:09;9.40;99.90
54168;DHT22;68429;50.958;3.592;2024-02-23T12:28:36;9.80;99.90
54168;DHT22;68429;50.958;3.592;2024-02-23T12:31:03;9.50;99.90
54168;DHT22;68429;50.958;3.592;2024-02-23T12:33:33;9.60;99.90
54168;DHT22;68429;50.958;3.592;2024-02-23T12:36:04;9.90;99.90
54168;DHT22;68429;50.958;3.592;2024-02-23T12:38:30;9.60;99.90
54168;DHT22;68429;50.958;3.592;2024-02-23T12:40:56;9.20;99.90
54168;DHT22;68429;50.958;3.592;2024-02-23T12:43:22;8.80;99.90
54168;DHT22;68429;50.958;3.592;2024-02-23T12:45:57;8.50;99.90
54168;DHT22;68429;50.958;3.592;2024-02-23T12:48:23;8.00;99.90
54168;DHT22;68429;50.958;3.592;2024-02-23T12:50:49;7.90;99.90
54168;DHT22;68429;50.958;3.592;2024-02-23T12:56:10;7.90;99.90
54168;DHT22;68429;50.958;3.592;2024-02-23T12:58:39;8.10;99.90
54168;DHT22;68429;50.958;3.592;2024-02-23T13:01:05;8.00;99.90
54168;DHT22;68429;50.958;3.592;2024-02-23T13:03:33;8.60;99.90
54168;DHT22;68429;50.958;3.592;2024-02-23T13:05:59;9.90;99.90
54168;DHT22;68429;50.958;3.592;2024-02-23T13:08:25;11.00;99.90
54168;DHT22;68429;50.958;3.592;2024-02-23T13:10:52;12.30;99.90
54168;DHT22;68429;50.958;3.592;2024-02-23T13:13:19;12.80;99.90
54168;DHT22;68429;50.958;3.592;2024-02-23T13:15:45;12.20;99.90
54168;DHT22;68429;50.958;3.592;2024-02-23T13:18:12;11.80;99.90
54168;DHT22;68429;50.958;3.592;2024-02-23T13:20:38;11.40;99.90
54168;DHT22;68429;50.958;3.592;2024-02-23T13:23:10;10.60;99.90
54168;DHT22;68429;50.958;3.592;2024-02-23T13:25:40;9.80;99.90
54168;DHT22;68429;50.958;3.592;2024-02-23T13:28:07;9.50;99.90
54168;DHT22;68429;50.958;3.592;2024-02-23T13:30:35;9.90;99.90
54168;DHT22;68429;50.958;3.592;2024-02-23T13:33:01;10.30;99.90
54168;DHT22;68429;50.958;3.592;2024-02-23T13:35:27;11.00;99.90
54168;DHT22;68429;50.958;3.592;2024-02-23T13:37:53;10.40;99.90
54168;DHT22;68429;50.958;3.592;2024-02-23T13:40:18;10.30;99.90
54168;DHT22;68429;50.958;3.592;2024-02-23T13:42:44;10.20;99.90
54168;DHT22;68429;50.958;3.592;2024-02-23T13:45:16;9.60;99.90
54168;DHT22;68429;50.958;3.592;2024-02-23T13:47:42;10.70;99.90
54168;DHT22;68429;50.958;3.592;2024-02-23T13:50:10;11.30;99.90
54168;DHT22;68429;50.958;3.592;2024-02-23T13:52:36;11.30;99.90
54168;DHT22;68429;50.958;3.592;2024-02-23T13:55:02;10.70;99.90
54168;DHT22;68429;50.958;3.592;2024-02-23T13:57:28;10.60;99.90
54168;DHT22;68429;50.958;3.592;2024-02-23T13:59:54;10.10;99.90
54168;DHT22;68429;50.958;3.592;2024-02-23T14:02:25;9.50;99.90
54168;DHT22;68429;50.958;3.592;2024-02-23T14:04:52;9.30;99.90
54168;DHT22;68429;50.958;3.592;2024-02-23T14:07:18;8.90;99.90
54168;DHT22;68429;50.958;3.592;2024-02-23T14:09:44;8.60;99.90
54168;DHT22;68429;50.958;3.592;2024-02-23T14:12:09;8.30;99.90
54168;DHT22;68429;50.958;3.592;2024-02-23T14:14:35;7.80;99.90
54168;DHT22;68429;50.958;3.592;2024-02-23T14:17:01;7.30;99.90
54168;DHT22;68429;50.958;3.592;2024-02-23T14:19:26;7.00;99.90
54168;DHT22;68429;50.958;3.592;2024-02-23T14:21:52;6.80;99.90
54168;DHT22;68429;50.958;3.592;2024-02-23T14:24:18;6.60;99.90
54168;DHT22;68429;50.958;3.592;2024-02-23T14:26:43;6.40;99.90
54168;DHT22;68429;50.958;3.592;2024-02-23T14:29:09;6.30;99.90
54168;DHT22;68429;50.958;3.592;2024-02-23T14:31:35;6.40;99.90
54168;DHT22;68429;50.958;3.592;2024-02-23T14:34:00;6.50;99.90
54168;DHT22;68429;50.958;3.592;2024-02-23T14:36:26;6.80;99.90
54168;DHT22;68429;50.958;3.592;2024-02-23T14:38:52;7.50;99.90
54168;DHT22;68429;50.958;3.592;2024-02-23T14:41:18;8.10;99.90
54168;DHT22;68429;50.958;3.592;2024-02-23T14:43:43;8.30;99.90
54168;DHT22;68429;50.958;3.592;2024-02-23T14:46:09;9.10;99.90
54168;DHT22;68429;50.958;3.592;2024-02-23T14:48:35;9.30;99.90
54168;DHT22;68429;50.958;3.592;2024-02-23T14:51:00;9.80;99.90
54168;DHT22;68429;50.958;3.592;2024-02-23T14:53:29;10.10;99.90
54168;DHT22;68429;50.958;3.592;2024-02-23T14:55:55;10.30;99.90
54168;DHT22;68429;50.958;3.592;2024-02-23T14:58:20;10.80;99.90
54168;DHT22;68429;50.958;3.592;2024-02-23T15:00:46;11.30;99.90
54168;DHT22;68429;50.958;3.592;2024-02-23T15:03:15;10.80;99.90
54168;DHT22;68429;50.958;3.592;2024-02-23T15:05:41;10.40;99.90
54168;DHT22;68429;50.958;3.592;2024-02-23T15:08:07;10.60;99.90
54168;DHT22;68429;50.958;3.592;2024-02-23T15:10:33;11.10;99.90
54168;DHT22;68429;50.958;3.592;2024-02-23T15:12:59;11.40;99.90
54168;DHT22;68429;50.958;3.592;2024-02-23T15:15:25;10.90;99.90
54168;DHT22;68429;50.958;3.592;2024-02-23T15:17:51;9.70;99.90
54168;DHT22;68429;50.958;3.592;2024-02-23T15:20:18;9.90;99.90
54168;DHT22;68429;50.958;3.592;2024-02-23T15:22:44;10.30;99.90
54168;DHT22;68429;50.958;3.592;2024-02-23T15:25:12;10.10;99.90
54168;DHT22;68429;50.958;3.592;2024-02-23T15:27:38;9.60;99.90
54168;DHT22;68429;50.958;3.592;2024-02-23T15:30:07;9.80;99.90
54168;DHT22;68429;50.958;3.592;2024-02-23T15:32:36;10.10;99.90
54168;DHT22;68429;50.958;3.592;2024-02-23T15:35:02;10.20;99.90
54168;DHT22;68429;50.958;3.592;2024-02-23T15:37:29;10.60;99.90
54168;DHT22;68429;50.958;3.592;2024-02-23T15:39:55;9.90;99.90
54168;DHT22;68429;50.958;3.592;2024-02-23T15:42:20;9.20;99.90
54168;DHT22;68429;50.958;3.592;2024-02-23T15:44:47;9.20;99.90